createdAt,value
2023-02-06T00:01:50.000Z,-2.40
2023-02-06T00:06:52.324Z,-2.40
2023-02-06T00:11:54.693Z,-2.30
2023-02-06T00:16:57.029Z,-2.10
2023-02-06T00:21:59.553Z,-2.30
2023-02-06T00:27:02.302Z,-2.10
2023-02-06T00:32:05.799Z,-2.00
2023-02-06T00:37:08.753Z,-1.80
2023-02-06T00:42:12.521Z,-1.90
2023-02-06T00:47:14.903Z,-2.10
2023-02-06T00:52:17.306Z,-2.00
2023-02-06T00:57:21.145Z,-2.00
2023-02-06T01:02:23.517Z,-2.10
2023-02-06T01:07:25.969Z,-1.80
2023-02-06T01:12:28.264Z,-1.80
2023-02-06T01:17:32.790Z,-1.80
2023-02-06T01:22:36.621Z,-2.00
2023-02-06T01:27:38.977Z,-2.10
2023-02-06T01:32:42.366Z,-1.70
2023-02-06T01:37:44.684Z,-1.90
2023-02-06T01:42:46.984Z,-1.70
2023-02-06T01:47:51.500Z,-1.80
2023-02-06T01:52:55.657Z,-1.70
2023-02-06T01:58:00.871Z,-1.90
2023-02-06T02:03:04.896Z,-2.00
2023-02-06T02:08:22.514Z,-1.70
2023-02-06T02:13:25.652Z,-1.90
2023-02-06T02:18:38.622Z,-1.60
2023-02-06T02:24:00.108Z,-1.60
2023-02-06T02:29:38.960Z,-1.80
2023-02-06T02:35:03.156Z,-2.00
2023-02-06T02:40:24.259Z,-1.80
2023-02-06T02:45:42.541Z,-1.70
2023-02-06T02:50:45.146Z,-2.00
2023-02-06T02:55:48.598Z,-1.70
2023-02-06T03:01:01.557Z,-1.60
2023-02-06T03:06:31.842Z,-1.80
2023-02-06T03:11:41.571Z,-1.70
2023-02-06T03:16:50.508Z,-1.70
2023-02-06T03:21:52.858Z,-1.80
2023-02-06T03:27:02.101Z,-1.60
2023-02-06T03:32:18.547Z,-1.70
2023-02-06T03:37:21.754Z,-1.80
2023-02-06T03:42:25.584Z,-1.70
2023-02-06T03:47:30.145Z,-1.90
2023-02-06T03:52:38.446Z,-1.70
2023-02-06T03:57:43.065Z,-1.80
2023-02-06T04:02:49.662Z,-1.50
2023-02-06T04:07:53.946Z,-1.70
2023-02-06T04:12:56.420Z,-1.70
2023-02-06T04:18:01.058Z,-1.40
2023-02-06T04:23:03.730Z,-1.40
2023-02-06T04:28:06.784Z,-1.30
2023-02-06T04:33:09.168Z,-1.30
2023-02-06T04:38:11.464Z,-1.30
2023-02-06T04:43:13.796Z,-1.10
2023-02-06T04:48:16.062Z,-1.30
2023-02-06T04:53:19.325Z,-1.40
2023-02-06T04:58:21.879Z,-1.60
2023-02-06T05:03:25.308Z,-1.40
2023-02-06T05:08:27.810Z,-1.40
2023-02-06T05:13:30.341Z,-1.20
2023-02-06T05:18:32.653Z,-1.30
2023-02-06T05:23:34.992Z,-1.40
2023-02-06T05:28:37.594Z,-1.30
2023-02-06T05:33:40.009Z,-1.40
2023-02-06T05:38:42.400Z,-1.50
2023-02-06T05:43:45.349Z,-1.20
2023-02-06T05:48:47.670Z,-1.10
2023-02-06T05:53:50.028Z,-1.30
2023-02-06T05:58:52.410Z,-1.10
2023-02-06T06:03:55.199Z,-1.00
2023-02-06T06:09:03.529Z,-1.10
2023-02-06T06:14:06.211Z,-1.30
2023-02-06T06:19:09.281Z,-1.10
2023-02-06T06:24:14.056Z,-1.20
2023-02-06T06:29:19.075Z,-1.30
2023-02-06T06:34:22.210Z,-1.40
2023-02-06T06:39:24.901Z,-1.60
2023-02-06T06:44:27.219Z,-1.50
2023-02-06T06:49:29.491Z,-1.40
2023-02-06T06:54:31.706Z,-1.40
2023-02-06T06:59:33.925Z,-1.30
2023-02-06T07:04:36.193Z,-1.40
2023-02-06T07:09:38.443Z,-1.20
2023-02-06T07:14:40.711Z,-1.20
2023-02-06T07:19:47.992Z,-1.20
2023-02-06T07:24:51.626Z,-1.20
2023-02-06T07:29:55.572Z,-1.30
2023-02-06T07:34:58.339Z,-1.30
2023-02-06T07:40:00.744Z,-1.20
2023-02-06T07:45:03.218Z,-0.90
2023-02-06T07:50:05.913Z,-0.90
2023-02-06T07:55:10.225Z,-1.00
2023-02-06T08:00:13.423Z,-0.80
2023-02-06T08:05:15.905Z,-0.70
2023-02-06T08:10:18.480Z,-0.60
2023-02-06T08:15:20.816Z,-0.60
2023-02-06T08:20:23.472Z,-0.40
2023-02-06T08:25:26.421Z,-0.30
2023-02-06T08:30:29.358Z,-0.30
2023-02-06T08:35:31.766Z,-0.30
2023-02-06T08:40:34.288Z,-0.10
2023-02-06T08:45:36.743Z,0.00
2023-02-06T08:50:39.602Z,0.20
2023-02-06T08:55:42.206Z,0.30
2023-02-06T09:00:44.576Z,0.30
2023-02-06T09:05:47.434Z,0.50
2023-02-06T09:10:49.744Z,0.60
2023-02-06T09:15:53.315Z,0.60
2023-02-06T09:21:12.202Z,0.90
2023-02-06T09:26:17.891Z,1.00
2023-02-06T09:31:21.622Z,1.20
2023-02-06T09:36:24.527Z,1.50
2023-02-06T09:41:27.023Z,1.50
2023-02-06T09:46:37.088Z,1.80
2023-02-06T09:51:56.759Z,1.80
2023-02-06T09:57:13.888Z,1.90
2023-02-06T10:02:25.951Z,2.20
2023-02-06T10:08:13.243Z,2.60
2023-02-06T10:13:27.628Z,3.00
2023-02-06T10:19:10.078Z,3.00
2023-02-06T10:24:26.061Z,2.90
2023-02-06T10:29:31.257Z,2.80
2023-02-06T10:34:52.212Z,2.90
2023-02-06T10:40:33.721Z,2.90
2023-02-06T10:45:43.798Z,3.10
2023-02-06T10:50:53.369Z,3.70
2023-02-06T10:56:00.694Z,4.00
2023-02-06T11:01:20.090Z,3.80
2023-02-06T11:06:30.678Z,3.80
2023-02-06T11:17:15.298Z,3.90
2023-02-06T11:22:27.973Z,4.10
2023-02-06T11:27:33.425Z,3.80
2023-02-06T11:33:29.756Z,3.60
2023-02-06T11:38:55.116Z,3.30
2023-02-06T11:44:24.097Z,3.80
2023-02-06T11:50:05.237Z,4.50
2023-02-06T11:55:28.483Z,4.60
2023-02-06T12:00:35.965Z,4.20
2023-02-06T12:05:42.562Z,4.30
2023-02-06T12:11:00.920Z,4.30
2023-02-06T12:16:05.631Z,4.50
2023-02-06T12:21:24.625Z,4.60
2023-02-06T12:26:33.649Z,5.00
2023-02-06T12:31:57.345Z,5.40
2023-02-06T12:37:14.032Z,5.40
2023-02-06T12:42:36.666Z,5.30
2023-02-06T12:48:06.968Z,4.90
2023-02-06T12:53:20.307Z,4.50
2023-02-06T12:58:31.775Z,4.10
2023-02-06T13:03:49.313Z,3.80
2023-02-06T13:09:25.250Z,3.90
2023-02-06T13:14:29.737Z,3.90
2023-02-06T13:20:09.140Z,3.80
2023-02-06T13:25:29.308Z,4.30
2023-02-06T13:30:31.807Z,5.10
2023-02-06T13:35:56.326Z,5.60
2023-02-06T13:41:17.060Z,6.10
2023-02-06T13:46:23.586Z,6.50
2023-02-06T13:52:03.480Z,7.10
2023-02-06T13:57:37.474Z,7.80
2023-02-06T14:02:49.696Z,8.30
2023-02-06T14:08:13.536Z,7.70
2023-02-06T14:13:41.441Z,7.40
2023-02-06T14:18:57.960Z,6.90
2023-02-06T14:24:11.600Z,7.10
2023-02-06T14:29:38.082Z,7.40
2023-02-06T14:35:24.030Z,7.50
2023-02-06T14:40:29.371Z,8.10
2023-02-06T14:45:40.924Z,8.00
2023-02-06T14:50:49.219Z,8.10
2023-02-06T14:55:51.958Z,8.30
2023-02-06T15:00:57.444Z,8.30
2023-02-06T15:06:05.761Z,8.10
2023-02-06T15:11:20.067Z,7.60
2023-02-06T15:16:22.667Z,6.90
2023-02-06T15:21:24.992Z,5.40
2023-02-06T15:26:45.187Z,4.50
2023-02-06T15:31:53.824Z,3.80
2023-02-06T15:36:56.302Z,3.40
2023-02-06T15:41:58.629Z,2.90
2023-02-06T15:47:04.527Z,2.40
2023-02-06T15:52:07.440Z,2.20
2023-02-06T15:57:35.527Z,2.10
2023-02-06T16:02:40.454Z,1.90
2023-02-06T16:07:47.433Z,1.80
2023-02-06T16:12:50.812Z,1.30
2023-02-06T16:17:53.689Z,1.30
2023-02-06T16:23:18.408Z,1.20
2023-02-06T16:28:23.114Z,0.90
2023-02-06T16:33:31.312Z,0.70
2023-02-06T16:38:33.695Z,0.60
2023-02-06T16:43:35.998Z,0.80
2023-02-06T16:48:38.252Z,0.70
2023-02-06T16:53:40.488Z,0.70
2023-02-06T16:58:43.391Z,0.60
2023-02-06T17:03:45.645Z,0.20
2023-02-06T17:08:48.549Z,-0.10
2023-02-06T17:13:50.851Z,-0.20
2023-02-06T17:18:54.043Z,-0.10
2023-02-06T17:23:56.407Z,-0.30
2023-02-06T17:28:58.734Z,-0.40
2023-02-06T17:34:00.968Z,-0.40
2023-02-06T17:39:03.216Z,-0.70
2023-02-06T17:44:05.495Z,-0.70
2023-02-06T17:49:07.796Z,-0.40
2023-02-06T17:54:11.055Z,-0.50
2023-02-06T17:59:13.299Z,-0.70
2023-02-06T18:04:19.578Z,-1.00
2023-02-06T18:09:21.841Z,-1.00
2023-02-06T18:14:24.249Z,-1.10
2023-02-06T18:19:26.510Z,-1.10
2023-02-06T18:24:28.757Z,-0.90
2023-02-06T18:29:43.629Z,-1.20
2023-02-06T18:34:51.016Z,-1.60
2023-02-06T18:39:55.113Z,-1.80
2023-02-06T18:44:57.423Z,-1.50
2023-02-06T18:49:59.809Z,-1.50
2023-02-06T18:55:02.413Z,-1.80
2023-02-06T19:00:05.963Z,-1.60
2023-02-06T19:05:08.691Z,-1.70
2023-02-06T19:10:12.957Z,-1.80
2023-02-06T19:15:15.742Z,-1.90
2023-02-06T19:20:19.382Z,-1.70
2023-02-06T19:25:21.642Z,-1.80
2023-02-06T19:30:23.873Z,-2.00
2023-02-06T19:35:26.161Z,-1.90
2023-02-06T19:40:28.422Z,-2.30
2023-02-06T19:45:30.657Z,-2.30
2023-02-06T19:50:35.181Z,-2.40
2023-02-06T19:55:37.906Z,-2.50
2023-02-06T20:00:40.203Z,-2.60
2023-02-06T20:05:43.694Z,-2.60
2023-02-06T20:10:46.019Z,-2.50
2023-02-06T20:15:48.565Z,-2.80
2023-02-06T20:20:50.867Z,-2.60
2023-02-06T20:25:54.850Z,-2.70
2023-02-06T20:30:57.341Z,-2.80
2023-02-06T20:36:05.561Z,-2.70
2023-02-06T20:41:08.583Z,-2.70
2023-02-06T20:46:11.247Z,-2.70
2023-02-06T20:51:14.468Z,-2.70
2023-02-06T20:56:17.588Z,-3.00
2023-02-06T21:01:25.439Z,-2.80
2023-02-06T21:06:29.294Z,-2.60
2023-02-06T21:11:37.148Z,-2.70
2023-02-06T21:16:39.862Z,-3.20
2023-02-06T21:21:45.565Z,-3.40
2023-02-06T21:26:48.398Z,-3.20
2023-02-06T21:31:55.688Z,-3.20
2023-02-06T21:37:05.637Z,-3.60
2023-02-06T21:42:09.431Z,-3.30
2023-02-06T21:47:11.680Z,-3.40
2023-02-06T21:52:13.987Z,-3.30
2023-02-06T21:57:16.356Z,-3.50
2023-02-06T22:02:19.263Z,-3.40
2023-02-06T22:07:21.556Z,-3.10
2023-02-06T22:12:24.003Z,-3.50
2023-02-06T22:17:27.912Z,-3.50
2023-02-06T22:22:30.179Z,-3.60
2023-02-06T22:27:33.769Z,-3.60
2023-02-06T22:32:37.828Z,-3.70
2023-02-06T22:37:40.180Z,-3.90
2023-02-06T22:42:43.740Z,-3.80
2023-02-06T22:47:46.069Z,-3.90
2023-02-06T22:53:07.167Z,-3.90
2023-02-06T22:58:09.464Z,-3.70
2023-02-06T23:03:11.708Z,-3.40
2023-02-06T23:08:13.978Z,-3.70
2023-02-06T23:13:16.255Z,-3.90
2023-02-06T23:18:18.635Z,-4.00
2023-02-06T23:23:21.209Z,-3.80
2023-02-06T23:28:25.141Z,-4.00
2023-02-06T23:33:27.440Z,-4.10
2023-02-06T23:38:29.653Z,-3.90
2023-02-06T23:43:32.154Z,-4.00
2023-02-06T23:48:35.213Z,-4.00
2023-02-06T23:53:37.755Z,-4.00
2023-02-06T23:58:40.405Z,-3.80
